Time;durP1;ratioP1;P1;durP2;ratioP2;P2;SDS_P1;SDS_P2;PMS_P1;PMS_P2;Temp;Humidity;BMP_temperature;BMP_pressure;BME280_temperature;BME280_humidity;BME280_pressure;Samples;Min_cycle;Max_cycle;Signal;HPM_P1;HPM_P2
2023/01/07 00:26:06;;;;;;;11.40;7.70;;;;;;;7.39;100.00;101104.56;4986837;28;20057;-65
2023/01/07 02:10:15;;;;;;;6.57;5.50;;;;;;;6.99;100.00;101092.94;4992875;28;20049;-66
2023/01/07 02:13:19;;;;;;;7.55;5.20;;;;;;;7.00;100.00;101099.03;4989141;28;20058;-65
2023/01/07 02:37:39;;;;;;;10.02;5.45;;;;;;;7.05;100.00;101069.16;4987828;28;20053;-65
2023/01/07 02:40:31;;;;;;;8.05;5.25;;;;;;;7.09;100.00;101065.50;4989902;28;20053;-65
2023/01/07 02:43:04;;;;;;;8.18;5.70;;;;;;;7.04;100.00;101059.59;4994763;28;20058;-66
2023/01/07 02:45:38;;;;;;;9.38;5.28;;;;;;;7.01;100.00;101062.31;4974521;28;20054;-65
2023/01/07 02:48:07;;;;;;;9.55;6.53;;;;;;;7.04;100.00;101066.59;4987621;28;20138;-66
2023/01/07 02:50:34;;;;;;;9.32;6.90;;;;;;;7.00;100.00;101071.09;4994261;28;20112;-65
2023/01/07 02:53:02;;;;;;;8.15;6.32;;;;;;;6.97;100.00;101071.19;4987652;28;20057;-65
2023/01/07 02:55:40;;;;;;;11.20;7.30;;;;;;;7.01;100.00;101070.16;4991694;28;20465;-64
2023/01/07 02:58:40;;;;;;;10.35;7.20;;;;;;;6.98;100.00;101061.56;4969822;28;20523;-65
2023/01/07 03:01:20;;;;;;;9.23;7.22;;;;;;;6.93;100.00;101063.50;4991526;28;20070;-64
2023/01/07 03:04:02;;;;;;;7.45;6.03;;;;;;;6.95;100.00;101066.94;4993116;28;20054;-65
2023/01/07 03:07:07;;;;;;;10.77;6.60;;;;;;;6.97;100.00;101059.88;4984427;28;20048;-65
2023/01/07 03:10:00;;;;;;;8.98;6.93;;;;;;;6.94;100.00;101062.63;4983384;28;20149;-64
2023/01/07 03:12:42;;;;;;;8.10;7.15;;;;;;;6.94;100.00;101053.00;4981853;28;20587;-65
2023/01/07 03:15:15;;;;;;;8.10;6.95;;;;;;;6.98;100.00;101058.94;4986750;28;20054;-65
2023/01/07 03:17:54;;;;;;;8.63;7.68;;;;;;;6.96;100.00;101055.56;4984205;28;20054;-67
2023/01/07 03:20:23;;;;;;;10.18;7.97;;;;;;;6.91;100.00;101060.09;4994638;28;20050;-65
2023/01/07 03:22:51;;;;;;;10.45;8.52;;;;;;;6.82;100.00;101062.16;4998724;28;20050;-64
2023/01/07 03:25:21;;;;;;;9.77;7.63;;;;;;;6.80;100.00;101063.13;4995028;28;20133;-66
2023/01/07 03:27:51;;;;;;;12.18;8.25;;;;;;;6.81;100.00;101062.22;4981673;28;20051;-66
2023/01/07 03:30:18;;;;;;;12.98;9.07;;;;;;;6.81;100.00;101068.28;4996849;28;20396;-64
2023/01/07 03:33:00;;;;;;;11.85;8.88;;;;;;;6.82;100.00;101063.91;4996187;28;20148;-65
2023/01/07 03:35:30;;;;;;;11.40;9.60;;;;;;;6.86;100.00;101070.75;5001748;28;20144;-65
2023/01/07 03:37:59;;;;;;;14.32;9.45;;;;;;;6.84;100.00;101070.81;4993269;28;20145;-65
2023/01/07 03:40:27;;;;;;;15.10;10.38;;;;;;;6.79;100.00;101062.25;4988166;28;20052;-65
2023/01/07 03:42:54;;;;;;;11.05;9.45;;;;;;;6.78;100.00;101070.16;4998148;28;20140;-64
2023/01/07 03:45:23;;;;;;;13.73;9.82;;;;;;;6.74;100.00;101060.72;4998076;28;20078;-64
2023/01/07 03:47:52;;;;;;;12.93;9.23;;;;;;;6.75;100.00;101057.19;5003567;28;20058;-65
2023/01/07 03:50:20;;;;;;;15.10;10.88;;;;;;;6.80;100.00;101058.75;4979582;28;20093;-65
2023/01/07 03:52:49;;;;;;;12.38;8.93;;;;;;;6.83;100.00;101060.38;4999374;28;20586;-65
2023/01/07 03:55:16;;;;;;;16.83;10.60;;;;;;;6.87;100.00;101056.75;4998265;28;20096;-65
2023/01/07 03:57:44;;;;;;;12.70;10.02;;;;;;;6.88;100.00;101054.97;4983550;28;20068;-66
2023/01/07 04:00:12;;;;;;;11.02;9.70;;;;;;;6.92;100.00;101053.97;4991661;28;20137;-65
2023/01/07 04:02:41;;;;;;;15.77;10.68;;;;;;;6.90;100.00;101037.47;4989378;28;20058;-65
2023/01/07 04:32:29;;;;;;;12.93;9.88;;;;;;;6.90;100.00;101011.28;4994051;28;20045;-66
2023/01/07 04:34:56;;;;;;;10.63;9.20;;;;;;;6.92;100.00;101007.69;4986065;28;20043;-66
2023/01/07 04:37:23;;;;;;;10.38;9.27;;;;;;;6.95;100.00;101010.22;4977470;28;20143;-64
2023/01/07 04:39:52;;;;;;;11.05;9.20;;;;;;;6.96;100.00;101001.44;4993096;28;20046;-65
2023/01/07 04:42:19;;;;;;;12.65;9.85;;;;;;;6.98;100.00;101004.88;4984769;28;20070;-66
2023/01/07 04:44:46;;;;;;;10.95;8.98;;;;;;;7.01;100.00;101014.34;4998234;28;20520;-65
2023/01/07 04:47:13;;;;;;;15.85;10.32;;;;;;;6.93;100.00;101012.00;4999730;28;20682;-65
2023/01/07 04:49:40;;;;;;;10.30;9.23;;;;;;;6.89;100.00;101010.44;4991838;28;20062;-65
2023/01/07 04:52:07;;;;;;;13.45;9.85;;;;;;;6.91;100.00;101010.38;4975858;28;20077;-65
2023/01/07 04:54:35;;;;;;;12.73;8.77;;;;;;;6.92;100.00;101010.31;4997198;28;20137;-66
2023/01/07 04:57:02;;;;;;;14.00;9.20;;;;;;;6.98;100.00;101009.22;4988914;28;20170;-65
2023/01/07 04:59:29;;;;;;;10.60;8.70;;;;;;;6.99;100.00;101011.78;4993977;28;20061;-65
2023/01/07 05:01:56;;;;;;;10.30;8.25;;;;;;;7.02;100.00;101011.66;4999899;28;20061;-65
2023/01/07 05:04:23;;;;;;;10.98;9.70;;;;;;;6.99;100.00;101009.19;4980548;28;20050;-66
2023/01/07 05:06:51;;;;;;;11.30;9.45;;;;;;;7.00;100.00;101013.50;4988625;28;20133;-65
2023/01/07 05:09:18;;;;;;;11.23;8.38;;;;;;;7.02;100.00;101011.66;4987781;28;20073;-65
2023/01/07 05:11:45;;;;;;;10.73;8.57;;;;;;;7.06;100.00;101015.03;4988757;28;20073;-65
2023/01/07 05:14:12;;;;;;;10.88;9.13;;;;;;;7.03;100.00;101015.16;4985675;28;20046;-65
2023/01/07 05:16:40;;;;;;;10.23;8.77;;;;;;;7.05;100.00;101013.31;4995119;28;20054;-65
2023/01/07 05:19:08;;;;;;;9.75;8.15;;;;;;;7.09;100.00;101017.53;4990956;28;20140;-65
2023/01/07 05:34:26;;;;;;;9.18;8.27;;;;;;;7.19;100.00;101003.16;4985535;28;20073;-65
2023/01/07 06:23:51;;;;;;;11.93;7.90;;;;;;;7.51;100.00;100993.19;4993149;28;20057;-65
2023/01/07 06:53:11;;;;;;;8.52;7.63;;;;;;;7.61;100.00;101000.63;4996167;28;20050;-65
2023/01/07 06:55:38;;;;;;;9.80;7.68;;;;;;;7.58;100.00;100992.88;4995890;28;20137;-65
2023/01/07 10:16:05;;;;;;;8.07;4.97;;;;;;;8.50;100.00;100973.25;4987291;28;20052;-63
2023/01/07 10:19:00;;;;;;;6.75;5.07;;;;;;;8.57;100.00;100972.06;4987597;28;20372;-65
2023/01/07 10:21:37;;;;;;;5.82;4.40;;;;;;;8.61;100.00;100975.41;4985600;28;20057;-62
2023/01/07 10:24:20;;;;;;;5.97;4.50;;;;;;;8.63;100.00;100966.53;4988272;28;20391;-62
2023/01/07 10:26:50;;;;;;;5.55;4.50;;;;;;;8.70;100.00;100961.03;4990565;28;20286;-62
2023/01/07 10:29:28;;;;;;;6.65;4.68;;;;;;;8.73;100.00;100963.47;4979059;28;20054;-62
2023/01/07 10:31:58;;;;;;;5.68;3.95;;;;;;;8.75;100.00;100954.63;4973483;28;20452;-62
2023/01/07 11:35:16;;;;;;;5.07;2.90;;;;;;;9.42;100.00;100878.78;4987507;28;21588;-63
2023/01/07 11:37:45;;;;;;;3.25;2.65;;;;;;;9.46;100.00;100873.31;4988559;28;20053;-62
2023/01/07 11:40:14;;;;;;;5.28;2.95;;;;;;;9.50;100.00;100872.22;4986604;28;20054;-63
2023/01/07 11:42:48;;;;;;;6.47;3.00;;;;;;;9.59;100.00;100871.75;4990935;28;20065;-63
2023/01/07 11:45:21;;;;;;;4.43;2.80;;;;;;;9.64;100.00;100872.38;4989474;28;20076;-61
2023/01/07 11:48:06;;;;;;;4.00;2.88;;;;;;;9.66;100.00;100866.19;4989861;28;20046;-63
2023/01/07 11:50:36;;;;;;;5.70;2.78;;;;;;;9.71;100.00;100872.88;4973283;28;20058;-62
2023/01/07 11:53:12;;;;;;;2.63;2.13;;;;;;;9.77;100.00;100867.34;4974487;28;20064;-63
2023/01/07 11:56:06;;;;;;;4.80;2.75;;;;;;;9.77;100.00;100864.72;4990883;28;20050;-63
2023/01/07 11:58:39;;;;;;;4.90;2.88;;;;;;;9.85;100.00;100864.28;4943526;28;20534;-62
2023/01/07 12:01:06;;;;;;;2.88;2.42;;;;;;;9.86;100.00;100858.97;4989374;28;20154;-65
2023/01/07 12:03:39;;;;;;;4.65;2.90;;;;;;;9.92;100.00;100860.41;4990496;28;20496;-63
2023/01/07 12:06:31;;;;;;;6.20;2.60;;;;;;;10.06;100.00;100854.44;4991608;28;20116;-63
2023/01/07 12:09:24;;;;;;;3.58;2.55;;;;;;;10.21;99.77;100853.59;4976424;28;20052;-63
2023/01/07 12:11:53;;;;;;;4.50;2.55;;;;;;;10.53;98.72;100846.63;4989460;28;20060;-63
2023/01/07 12:14:30;;;;;;;2.47;1.95;;;;;;;11.08;97.64;100854.06;4989341;28;20058;-63
2023/01/07 12:17:10;;;;;;;2.90;1.80;;;;;;;11.24;94.70;100845.25;4991856;28;20402;-63
2023/01/07 12:19:57;;;;;;;4.38;2.08;;;;;;;11.20;93.31;100838.47;4973051;28;20047;-64
2023/01/07 12:22:43;;;;;;;3.60;2.08;;;;;;;11.03;93.60;100836.81;4988038;28;20050;-63
2023/01/07 12:25:33;;;;;;;8.13;2.13;;;;;;;10.90;94.51;100836.69;4987428;28;20054;-63
2023/01/07 12:28:17;;;;;;;2.88;1.90;;;;;;;10.85;94.98;100836.94;4988501;28;20057;-62
2023/01/07 12:31:22;;;;;;;4.95;2.03;;;;;;;10.72;94.07;100832.47;4971581;28;20046;-63
2023/01/07 12:34:24;;;;;;;3.20;1.95;;;;;;;10.65;94.25;100821.41;4985027;28;20042;-62
2023/01/07 12:37:00;;;;;;;4.90;1.80;;;;;;;10.71;95.27;100826.31;4959454;28;20054;-63
2023/01/07 12:39:36;;;;;;;4.93;1.90;;;;;;;10.74;94.48;100828.78;5020935;22;20504;-63
2023/01/07 12:42:23;;;;;;;4.68;2.83;;;;;;;10.68;95.27;100820.41;4990252;28;20506;-63
2023/01/07 12:44:54;;;;;;;3.45;1.90;;;;;;;10.59;94.99;100816.50;4972865;28;20105;-63
2023/01/07 12:47:30;;;;;;;3.83;2.20;;;;;;;10.52;94.70;100817.75;4988926;28;20054;-63
2023/01/07 12:50:11;;;;;;;3.50;2.20;;;;;;;10.54;94.98;100818.53;4990036;28;20407;-63
2023/01/07 12:52:55;;;;;;;2.78;1.77;;;;;;;10.52;96.10;100813.34;4977911;28;20137;-63
2023/01/07 12:55:27;;;;;;;2.70;2.10;;;;;;;10.48;94.88;100803.91;4979596;28;20101;-62
2023/01/07 12:58:16;;;;;;;3.63;2.10;;;;;;;10.45;94.89;100806.72;4975127;28;20060;-64
2023/01/07 13:01:01;;;;;;;2.95;2.00;;;;;;;10.46;95.41;100800.53;4990207;28;20068;-63
2023/01/07 13:03:38;;;;;;;3.72;1.90;;;;;;;10.46;95.31;100795.25;4975249;28;20054;-63
2023/01/07 13:06:13;;;;;;;3.97;2.35;;;;;;;10.46;95.64;100799.69;4992393;28;20072;-63
2023/01/07 13:09:15;;;;;;;3.92;1.95;;;;;;;10.43;95.94;100787.53;4976182;28;20062;-64
2023/01/07 13:14:36;;;;;;;4.85;2.35;;;;;;;10.43;96.16;100789.31;4979961;28;20068;-63
2023/01/07 13:17:15;;;;;;;2.30;1.88;;;;;;;10.35;94.65;100785.31;4979982;28;20057;-63
2023/01/07 13:19:43;;;;;;;3.20;1.98;;;;;;;10.39;95.38;100784.22;4980728;28;20056;-61
2023/01/07 13:22:22;;;;;;;2.85;1.95;;;;;;;10.37;94.88;100782.63;4985310;28;20158;-64
2023/01/07 13:25:31;;;;;;;3.30;1.75;;;;;;;10.35;95.06;100779.19;4980108;28;20054;-63
2023/01/07 13:28:37;;;;;;;4.35;2.10;;;;;;;10.37;94.96;100778.19;4989257;28;20157;-63
2023/01/07 13:31:10;;;;;;;3.47;2.00;;;;;;;10.42;95.64;100774.47;4966818;28;20115;-62
2023/01/07 13:34:01;;;;;;;3.45;1.92;;;;;;;10.44;94.32;100769.94;4989155;28;20164;-63
2023/01/07 13:36:55;;;;;;;3.15;2.45;;;;;;;10.45;94.58;100767.25;4965794;28;20043;-63
2023/01/07 13:39:43;;;;;;;4.75;2.17;;;;;;;10.42;95.06;100766.56;4986218;28;20061;-63
2023/01/07 13:42:34;;;;;;;3.42;2.20;;;;;;;10.40;94.95;100758.75;4988560;28;20054;-63
2023/01/07 13:45:08;;;;;;;3.00;2.13;;;;;;;10.34;94.54;100754.69;4988261;28;20160;-63
2023/01/07 13:47:49;;;;;;;2.47;2.05;;;;;;;10.35;95.01;100761.63;4986943;28;20507;-64
2023/01/07 13:50:41;;;;;;;3.40;2.38;;;;;;;10.35;94.32;100753.72;4990243;28;20078;-63
2023/01/07 13:53:14;;;;;;;3.53;2.25;;;;;;;10.30;93.42;100753.16;4993566;28;20122;-64
2023/01/07 13:55:46;;;;;;;3.92;2.17;;;;;;;10.36;94.31;100747.56;4986358;28;20159;-64
2023/01/07 13:58:32;;;;;;;2.95;1.80;;;;;;;10.49;94.78;100742.47;4995020;28;20070;-64
2023/01/07 14:01:16;;;;;;;5.10;2.20;;;;;;;10.63;94.32;100741.66;4988716;28;20050;-63
2023/01/07 14:03:52;;;;;;;3.60;2.60;;;;;;;10.77;93.61;100739.09;4980060;28;20073;-64
2023/01/07 14:06:19;;;;;;;4.60;2.22;;;;;;;10.85;92.95;100739.50;4976734;28;20481;-63
2023/01/07 14:09:04;;;;;;;4.78;1.80;;;;;;;10.93;92.45;100735.56;4992838;28;20050;-63
2023/01/07 14:11:32;;;;;;;3.13;2.10;;;;;;;10.99;91.28;100733.41;4991539;28;20440;-62
2023/01/07 14:14:30;;;;;;;4.10;2.35;;;;;;;11.12;90.55;100737.03;4988466;28;20046;-63
2023/01/07 14:17:17;;;;;;;3.08;2.08;;;;;;;11.27;88.98;100735.25;4977784;28;20127;-62
2023/01/07 14:19:49;;;;;;;6.25;2.72;;;;;;;11.31;89.93;100730.66;4975523;28;20039;-63
2023/01/07 14:22:31;;;;;;;3.80;2.35;;;;;;;11.41;88.41;100734.41;4982785;28;20201;-63
2023/01/07 14:25:22;;;;;;;2.75;2.00;;;;;;;11.48;87.88;100732.25;4986226;28;20073;-63
2023/01/07 14:28:05;;;;;;;6.53;2.67;;;;;;;11.56;87.13;100725.56;4979692;28;20086;-62
2023/01/07 14:30:42;;;;;;;3.30;2.20;;;;;;;11.49;87.03;100720.78;4988390;28;20058;-63
2023/01/07 14:33:23;;;;;;;3.20;2.28;;;;;;;11.46;87.72;100724.44;4987604;28;20121;-63
2023/01/07 14:35:59;;;;;;;6.60;2.60;;;;;;;11.26;88.06;100709.00;4988909;28;20051;-62
2023/01/07 14:38:29;;;;;;;3.95;1.80;;;;;;;11.22;89.38;100715.41;4985545;28;20443;-63
2023/01/07 14:41:05;;;;;;;3.90;2.40;;;;;;;11.17;89.32;100713.03;4980908;28;20051;-63
2023/01/07 14:43:47;;;;;;;7.53;3.05;;;;;;;11.12;89.61;100702.78;4989528;28;20077;-64
2023/01/07 14:46:23;;;;;;;3.45;2.40;;;;;;;11.05;90.36;100716.41;4986158;28;20057;-63
2023/01/07 14:48:56;;;;;;;4.97;2.95;;;;;;;10.97;90.20;100710.72;4986615;28;20116;-62
2023/01/07 14:51:42;;;;;;;2.85;2.20;;;;;;;10.91;90.22;100709.31;4990568;28;20145;-64
2023/01/07 14:54:40;;;;;;;4.90;2.83;;;;;;;10.85;90.66;100713.16;4986254;28;20046;-62
2023/01/07 14:57:53;;;;;;;5.35;2.20;;;;;;;10.82;90.64;100715.97;4983349;28;20417;-63
2023/01/07 15:00:45;;;;;;;3.58;2.20;;;;;;;10.79;91.50;100704.75;4987544;28;20134;-63
2023/01/07 15:04:03;;;;;;;7.45;3.00;;;;;;;10.68;91.65;100704.53;4985628;28;20184;-63
2023/01/07 15:06:34;;;;;;;5.93;3.00;;;;;;;10.60;91.37;100703.19;4930448;29;20051;-64
2023/01/07 15:23:58;;;;;;;4.25;2.88;;;;;;;10.33;94.03;100717.94;4992646;28;20116;-63
2023/01/07 17:13:37;;;;;;;3.55;2.78;;;;;;;9.82;91.97;100649.72;4985662;28;20045;-61
2023/01/07 18:01:14;;;;;;;6.05;2.90;;;;;;;9.73;91.74;100596.81;4984884;28;20112;-63
2023/01/07 18:25:48;;;;;;;5.45;3.83;;;;;;;9.59;92.98;100581.75;4986864;28;20155;-64
2023/01/07 18:32:35;;;;;;;5.22;3.10;;;;;;;9.54;93.12;100570.66;4990432;28;20125;-65
2023/01/07 19:50:08;;;;;;;6.07;3.97;;;;;;;9.39;91.68;100481.25;4986535;28;20148;-63
2023/01/07 21:04:58;;;;;;;5.63;4.40;;;;;;;8.96;89.14;100411.91;4992125;28;20061;-63
2023/01/07 23:06:46;;;;;;;12.57;4.30;;;;;;;8.61;87.76;100303.63;4991529;28;20116;-63
2023/01/07 23:13:33;;;;;;;5.05;3.95;;;;;;;8.56;88.38;100301.28;4991199;28;20399;-63
